createdAt,value
2022-10-17T00:03:45.629Z,7.82
2022-10-17T00:07:47.248Z,7.70
2022-10-17T00:11:46.669Z,8.05
2022-10-17T00:15:46.428Z,7.43
2022-10-17T00:19:45.874Z,8.02
2022-10-17T00:23:48.131Z,8.43
2022-10-17T00:27:47.599Z,8.88
2022-10-17T00:31:47.125Z,8.40
2022-10-17T00:39:48.571Z,8.80
2022-10-17T00:43:55.870Z,9.07
2022-10-17T00:48:00.685Z,8.38
2022-10-17T00:52:03.519Z,8.82
2022-10-17T00:56:05.284Z,7.82
2022-10-17T01:00:09.273Z,8.23
2022-10-17T01:04:08.885Z,9.20
2022-10-17T01:12:19.325Z,9.05
2022-10-17T01:16:22.796Z,9.43
2022-10-17T01:20:49.790Z,9.70
2022-10-17T01:25:07.340Z,9.02
2022-10-17T01:29:30.449Z,9.73
2022-10-17T01:34:00.424Z,11.00
2022-10-17T01:38:09.789Z,9.70
2022-10-17T01:42:17.034Z,11.20
2022-10-17T01:46:24.757Z,11.13
2022-10-17T01:50:33.028Z,11.38
2022-10-17T01:54:39.252Z,10.60
2022-10-17T01:58:44.572Z,8.77
2022-10-17T02:02:46.903Z,9.65
2022-10-17T02:06:50.264Z,10.65
2022-10-17T02:10:56.126Z,9.55
2022-10-17T02:15:11.007Z,10.13
2022-10-17T02:19:28.335Z,10.23
2022-10-17T02:23:39.752Z,10.07
2022-10-17T02:27:49.394Z,9.45
2022-10-17T02:35:56.452Z,8.23
2022-10-17T02:40:01.046Z,8.45
2022-10-17T02:44:02.379Z,10.23
2022-10-17T02:48:06.879Z,7.60
2022-10-17T02:52:13.474Z,9.70
2022-10-17T02:56:20.113Z,9.95
2022-10-17T03:00:20.765Z,14.65
2022-10-17T03:04:20.479Z,27.10
2022-10-17T03:08:20.347Z,29.02
2022-10-17T03:12:22.048Z,40.92
2022-10-17T03:16:21.068Z,53.72
2022-10-17T03:24:19.493Z,52.85
2022-10-17T03:32:20.857Z,43.33
2022-10-17T03:36:21.400Z,33.40
2022-10-17T03:40:22.266Z,24.33
2022-10-17T03:44:24.321Z,23.45
2022-10-17T03:48:23.973Z,21.75
2022-10-17T03:52:23.449Z,18.42
2022-10-17T04:00:26.313Z,14.75
2022-10-17T04:04:26.456Z,30.58
2022-10-17T04:08:25.613Z,24.90
2022-10-17T04:12:27.879Z,24.08
2022-10-17T04:16:29.875Z,20.55
2022-10-17T04:20:29.941Z,19.70
2022-10-17T04:28:30.961Z,15.70
2022-10-17T04:32:33.016Z,19.45
2022-10-17T04:36:33.599Z,19.08
2022-10-17T04:40:35.339Z,16.08
2022-10-17T04:44:35.738Z,19.27
2022-10-17T04:48:37.817Z,32.72
2022-10-17T04:52:39.171Z,17.38
2022-10-17T04:56:41.053Z,14.93
2022-10-17T05:00:41.078Z,16.00
2022-10-17T05:04:43.727Z,13.80
2022-10-17T05:08:44.355Z,18.63
2022-10-17T05:12:44.156Z,16.17
2022-10-17T05:16:45.104Z,14.63
2022-10-17T05:20:47.853Z,18.17
2022-10-17T05:24:47.656Z,25.58
2022-10-17T05:28:47.834Z,24.58
2022-10-17T05:32:48.586Z,14.43
2022-10-17T05:36:50.555Z,17.98
2022-10-17T05:40:52.065Z,16.23
2022-10-17T05:44:52.015Z,18.08
2022-10-17T05:48:51.734Z,22.95
2022-10-17T05:52:58.013Z,21.92
2022-10-17T05:56:58.686Z,34.13
2022-10-17T06:01:00.968Z,18.42
2022-10-17T06:05:02.576Z,21.17
2022-10-17T06:09:05.352Z,15.02
2022-10-17T06:13:05.832Z,13.85
2022-10-17T06:17:05.572Z,13.43
2022-10-17T06:21:06.781Z,16.42
2022-10-17T06:25:10.439Z,14.63
2022-10-17T06:29:10.059Z,15.65
2022-10-17T06:33:10.636Z,14.88
2022-10-17T06:37:13.136Z,14.65
2022-10-17T06:41:21.874Z,17.17
2022-10-17T06:45:24.466Z,12.45
2022-10-17T06:49:23.928Z,13.02
2022-10-17T06:53:30.186Z,13.43
2022-10-17T06:57:33.267Z,13.70
2022-10-17T07:01:34.058Z,13.88
2022-10-17T07:05:37.867Z,14.75
2022-10-17T07:09:38.094Z,14.88
2022-10-17T07:13:39.541Z,14.48
2022-10-17T07:17:40.010Z,15.27
2022-10-17T07:21:39.558Z,14.80
2022-10-17T07:25:41.133Z,14.98
2022-10-17T07:29:43.381Z,14.68
2022-10-17T07:33:43.737Z,14.00
2022-10-17T07:37:43.699Z,13.20
2022-10-17T07:41:43.496Z,12.80
2022-10-17T07:45:45.545Z,10.68
2022-10-17T07:49:46.247Z,8.73
2022-10-17T07:53:48.738Z,9.30
2022-10-17T07:57:53.054Z,9.82
2022-10-17T08:01:57.542Z,9.98
2022-10-17T08:06:00.867Z,10.07
2022-10-17T08:10:00.262Z,10.75
2022-10-17T08:14:00.149Z,9.50
2022-10-17T08:18:02.156Z,8.75
2022-10-17T08:22:02.043Z,10.20
2022-10-17T08:26:02.701Z,9.15
2022-10-17T08:30:02.838Z,8.23
2022-10-17T08:34:04.893Z,6.97
2022-10-17T08:38:04.774Z,7.68
2022-10-17T08:42:19.271Z,7.35
2022-10-17T08:46:20.313Z,5.00
2022-10-17T08:50:31.665Z,7.90
2022-10-17T08:54:41.154Z,12.77
2022-10-17T08:58:40.494Z,5.20
2022-10-17T09:02:50.899Z,5.47
2022-10-17T09:07:01.826Z,4.22
2022-10-17T09:11:12.489Z,4.55
2022-10-17T09:15:37.573Z,3.47
2022-10-17T09:19:40.915Z,3.60
2022-10-17T09:23:53.194Z,4.53
2022-10-17T09:28:06.877Z,3.03
2022-10-17T09:32:15.878Z,3.17
2022-10-17T09:36:23.222Z,3.25
2022-10-17T09:40:29.547Z,5.25
2022-10-17T09:44:33.705Z,5.90
2022-10-17T09:48:38.974Z,5.20
2022-10-17T09:52:47.543Z,4.20
2022-10-17T09:57:05.469Z,3.42
2022-10-17T10:01:22.910Z,4.70
2022-10-17T10:05:24.051Z,5.10
2022-10-17T10:09:27.539Z,4.88
2022-10-17T10:13:29.669Z,4.03
2022-10-17T10:17:41.395Z,3.45
2022-10-17T10:21:57.459Z,4.07
2022-10-17T10:25:59.291Z,2.65
2022-10-17T10:30:01.437Z,5.70
2022-10-17T10:34:04.203Z,3.42
2022-10-17T10:38:10.627Z,15.18
2022-10-17T10:42:20.710Z,4.53
2022-10-17T10:46:25.001Z,4.75
2022-10-17T10:50:33.446Z,4.22
2022-10-17T10:54:40.788Z,4.82
2022-10-17T10:58:49.473Z,4.38
2022-10-17T11:03:01.914Z,2.90
2022-10-17T11:07:07.593Z,4.40
2022-10-17T11:11:20.979Z,3.53
2022-10-17T11:15:30.529Z,22.52
2022-10-17T11:19:37.139Z,6.53
2022-10-17T11:23:43.413Z,3.72
2022-10-17T11:27:42.946Z,4.03
2022-10-17T11:31:47.182Z,3.50
2022-10-17T11:35:52.295Z,3.42
2022-10-17T11:39:57.013Z,3.22
2022-10-17T11:44:01.319Z,3.95
2022-10-17T11:48:05.051Z,3.83
2022-10-17T11:52:51.337Z,3.47
2022-10-17T11:56:56.487Z,3.30
2022-10-17T12:01:02.582Z,3.33
2022-10-17T12:05:09.782Z,3.60
2022-10-17T12:09:17.940Z,3.50
2022-10-17T12:13:49.574Z,3.85
2022-10-17T12:17:57.987Z,3.20
2022-10-17T12:22:00.218Z,3.90
2022-10-17T12:26:05.003Z,2.63
2022-10-17T12:30:09.232Z,3.58
2022-10-17T12:34:20.127Z,2.80
2022-10-17T12:38:29.938Z,2.70
2022-10-17T12:42:50.310Z,2.88
2022-10-17T12:46:51.786Z,14.65
2022-10-17T12:55:28.492Z,2.45
2022-10-17T12:59:30.304Z,3.40
2022-10-17T13:03:35.102Z,2.95
2022-10-17T13:07:36.777Z,2.85
2022-10-17T13:11:39.730Z,2.42
2022-10-17T13:15:41.744Z,2.28
2022-10-17T13:19:46.007Z,2.60
2022-10-17T13:23:47.316Z,2.80
2022-10-17T13:27:47.448Z,2.63
2022-10-17T13:31:54.253Z,3.63
2022-10-17T13:36:01.587Z,3.60
2022-10-17T13:40:07.346Z,2.88
2022-10-17T13:44:16.199Z,2.35
2022-10-17T13:48:23.149Z,2.92
2022-10-17T13:52:25.679Z,3.35
2022-10-17T13:56:29.174Z,2.63
2022-10-17T14:00:29.249Z,2.35
2022-10-17T14:04:44.797Z,3.53
2022-10-17T14:09:26.988Z,4.43
2022-10-17T14:13:33.574Z,2.80
2022-10-17T14:17:33.647Z,4.05
2022-10-17T14:21:43.825Z,4.05
2022-10-17T14:25:44.300Z,2.92
2022-10-17T14:29:54.031Z,2.67
2022-10-17T14:33:55.156Z,2.58
2022-10-17T14:38:01.326Z,2.40
2022-10-17T14:42:04.282Z,2.95
2022-10-17T14:46:05.217Z,2.88
2022-10-17T14:50:09.049Z,4.75
2022-10-17T14:54:21.866Z,4.45
2022-10-17T14:58:28.716Z,7.68
2022-10-17T15:02:30.633Z,5.68
2022-10-17T15:06:32.792Z,3.85
2022-10-17T15:10:41.556Z,3.67
2022-10-17T15:14:43.161Z,3.88
2022-10-17T15:18:42.900Z,5.10
2022-10-17T15:22:42.743Z,3.67
2022-10-17T15:26:44.576Z,4.45
2022-10-17T15:30:44.672Z,4.20
2022-10-17T15:34:44.968Z,3.60
2022-10-17T15:38:44.695Z,4.28
2022-10-17T15:42:46.713Z,4.80
2022-10-17T15:46:46.071Z,5.97
2022-10-17T15:50:45.699Z,8.95
2022-10-17T15:54:44.904Z,9.10
2022-10-17T15:58:46.884Z,10.70
2022-10-17T16:02:47.413Z,10.60
2022-10-17T16:06:47.035Z,8.52
2022-10-17T16:10:46.698Z,8.52
2022-10-17T16:14:48.411Z,8.23
2022-10-17T16:18:48.030Z,9.52
2022-10-17T16:22:48.956Z,9.00
2022-10-17T16:26:48.505Z,8.35
2022-10-17T16:30:49.754Z,8.05
2022-10-17T16:34:49.354Z,9.30
2022-10-17T16:38:49.598Z,11.77
2022-10-17T16:42:49.351Z,13.57
2022-10-17T16:46:51.077Z,12.00
2022-10-17T16:50:50.579Z,10.30
2022-10-17T16:54:49.609Z,9.82
2022-10-17T16:58:50.049Z,13.73
2022-10-17T17:02:51.721Z,11.65
2022-10-17T17:06:51.383Z,13.52
2022-10-17T17:10:51.254Z,12.25
2022-10-17T17:14:51.227Z,12.10
2022-10-17T17:18:56.943Z,12.75
2022-10-17T17:22:56.517Z,14.02
2022-10-17T17:26:57.773Z,17.27
2022-10-17T17:30:57.713Z,26.40
2022-10-17T17:34:59.901Z,34.95
2022-10-17T17:39:01.305Z,25.73
2022-10-17T17:47:05.456Z,13.40
2022-10-17T17:51:10.977Z,11.07
2022-10-17T17:55:11.544Z,11.18
2022-10-17T17:59:15.674Z,11.48
2022-10-17T18:03:15.502Z,11.55
2022-10-17T18:07:17.267Z,12.15
2022-10-17T18:11:19.620Z,12.15
2022-10-17T18:15:21.576Z,10.15
2022-10-17T18:19:23.406Z,9.77
2022-10-17T18:23:25.964Z,9.45
2022-10-17T18:27:25.726Z,10.68
2022-10-17T18:31:28.138Z,16.85
2022-10-17T18:35:27.991Z,11.85
2022-10-17T18:39:29.926Z,15.15
2022-10-17T18:43:29.648Z,14.45
2022-10-17T18:47:29.461Z,13.38
2022-10-17T18:51:29.597Z,13.07
2022-10-17T18:55:32.292Z,12.80
2022-10-17T18:59:31.904Z,11.90
2022-10-17T19:03:31.026Z,13.52
2022-10-17T19:07:30.726Z,12.20
2022-10-17T19:11:34.602Z,11.27
2022-10-17T19:15:34.494Z,12.63
2022-10-17T19:19:34.737Z,13.57
2022-10-17T19:23:35.580Z,13.30
2022-10-17T19:27:37.577Z,13.80
2022-10-17T19:31:38.082Z,14.52
2022-10-17T19:35:37.679Z,15.48
2022-10-17T19:39:36.820Z,25.02
2022-10-17T19:43:40.445Z,27.95
2022-10-17T19:47:40.378Z,25.58
2022-10-17T19:51:40.175Z,22.40
2022-10-17T19:55:39.782Z,16.63
2022-10-17T19:59:41.484Z,15.80
2022-10-17T20:03:41.243Z,20.23
2022-10-17T20:07:41.060Z,22.17
2022-10-17T20:11:40.610Z,15.93
2022-10-17T20:15:42.109Z,20.70
2022-10-17T20:19:41.686Z,24.75
2022-10-17T20:23:41.852Z,20.58
2022-10-17T20:27:41.476Z,19.15
2022-10-17T20:31:44.632Z,18.95
2022-10-17T20:39:55.824Z,16.00
2022-10-17T20:44:06.626Z,13.23
2022-10-17T20:48:09.644Z,12.20
2022-10-17T20:52:09.357Z,9.07
2022-10-17T20:56:11.226Z,9.60
2022-10-17T21:00:12.067Z,15.13
2022-10-17T21:08:33.923Z,20.58
2022-10-17T21:12:49.953Z,23.35
2022-10-17T21:16:54.007Z,11.40
2022-10-17T21:20:55.761Z,9.30
2022-10-17T21:24:55.346Z,10.85
2022-10-17T21:32:55.886Z,15.30
2022-10-17T21:36:57.861Z,18.20
2022-10-17T21:40:57.506Z,33.53
2022-10-17T21:48:57.037Z,34.25
2022-10-17T21:53:00.296Z,32.40
2022-10-17T21:56:59.918Z,31.52
2022-10-17T22:01:05.732Z,40.30
2022-10-17T22:05:05.451Z,35.33
2022-10-17T22:09:10.476Z,37.85
2022-10-17T22:13:10.059Z,34.08
2022-10-17T22:21:12.951Z,32.00
2022-10-17T22:25:14.648Z,24.38
2022-10-17T22:29:14.763Z,25.25
2022-10-17T22:37:13.152Z,20.10
2022-10-17T22:45:14.167Z,22.58
2022-10-17T22:53:12.937Z,23.05
2022-10-17T23:01:17.720Z,17.10
2022-10-17T23:05:17.547Z,17.77
2022-10-17T23:09:17.186Z,20.35
2022-10-17T23:17:19.298Z,15.15
2022-10-17T23:21:18.273Z,15.43
2022-10-17T23:25:18.401Z,14.45
2022-10-17T23:29:20.033Z,14.52
2022-10-17T23:33:19.650Z,14.10
2022-10-17T23:41:19.102Z,15.45
2022-10-17T23:45:20.832Z,13.27
2022-10-17T23:49:19.964Z,12.95
2022-10-17T23:57:18.933Z,12.75
